Time;durP1;ratioP1;P1;durP2;ratioP2;P2;SDS_P1;SDS_P2;PMS_P1;PMS_P2;Temp;Humidity;BMP_temperature;BMP_pressure;BME280_temperature;BME280_humidity;BME280_pressure;Samples;Min_cycle;Max_cycle;Signal;HPM_P1;HPM_P2
2022/01/24 00:02:20;;;;;;;15.50;7.10;;;;;;;-1.28;51.42;101515.63;4470784;32;34884;-80
2022/01/24 00:04:49;;;;;;;15.23;7.33;;;;;;;-1.19;51.19;101514.25;4444877;32;33432;-80
2022/01/24 00:07:20;;;;;;;16.03;7.60;;;;;;;-1.25;51.39;101511.91;4470561;32;33642;-80
2022/01/24 00:09:49;;;;;;;16.80;7.90;;;;;;;-1.54;51.80;101502.81;4471086;32;34256;-80
2022/01/24 00:12:34;;;;;;;19.93;10.43;;;;;;;-1.67;52.43;101516.97;4470560;32;33761;-80
2022/01/24 00:17:36;;;;;;;25.53;12.67;;;;;;;-1.75;52.96;101518.34;4486879;32;33672;-79
2022/01/24 00:28:10;;;;;;;20.53;9.03;;;;;;;-1.74;52.66;101539.81;4461653;32;33179;-80
2022/01/24 00:30:38;;;;;;;18.77;9.03;;;;;;;-1.74;52.26;101534.41;4459671;32;35039;-80
2022/01/24 00:33:06;;;;;;;19.57;9.33;;;;;;;-1.85;52.21;101536.84;4459609;32;33482;-79
2022/01/24 00:35:36;;;;;;;19.87;8.97;;;;;;;-1.73;52.02;101541.53;4459031;32;32748;-80
2022/01/24 00:38:03;;;;;;;20.80;10.13;;;;;;;-1.80;52.11;101545.53;4459474;32;33550;-80
2022/01/24 00:40:36;;;;;;;20.77;9.63;;;;;;;-2.02;52.81;101547.69;4472762;32;35217;-79
2022/01/24 00:43:09;;;;;;;23.53;9.50;;;;;;;-2.00;52.75;101543.09;4459622;32;32456;-79
2022/01/24 00:45:57;;;;;;;28.40;11.90;;;;;;;-2.13;52.98;101552.75;4479157;31;34189;-79
2022/01/24 00:56:13;;;;;;;22.30;10.70;;;;;;;-2.07;52.36;101549.75;4475475;31;31915;-80
2022/01/24 00:58:42;;;;;;;24.27;10.90;;;;;;;-2.25;52.76;101548.03;4487939;31;32321;-79
2022/01/24 01:01:10;;;;;;;29.03;12.83;;;;;;;-2.10;52.45;101545.41;4488501;31;34668;-79
2022/01/24 01:03:37;;;;;;;27.07;12.37;;;;;;;-2.14;52.77;101546.50;4474919;31;34048;-80
2022/01/24 01:06:09;;;;;;;24.17;11.80;;;;;;;-2.34;53.32;101550.25;4474964;31;31888;-80
2022/01/24 01:19:52;;;;;;;18.35;8.73;;;;;;;-2.50;53.10;101537.69;4476747;31;33232;-79
2022/01/24 01:22:19;;;;;;;24.03;9.80;;;;;;;-2.46;52.95;101536.59;4474733;31;32954;-80
2022/01/24 01:24:52;;;;;;;26.90;12.40;;;;;;;-2.46;52.69;101540.16;4487871;31;34878;-80
2022/01/24 01:27:28;;;;;;;32.57;19.83;;;;;;;-2.50;52.99;101538.56;4487926;31;33292;-80
2022/01/24 01:30:04;;;;;;;26.27;15.57;;;;;;;-2.49;52.79;101552.88;4488856;31;34478;-80
2022/01/24 01:52:46;;;;;;;19.60;9.50;;;;;;;-2.57;52.64;101537.16;4490872;31;33809;-79
2022/01/24 01:57:11;;;;;;;21.53;10.37;;;;;;;-2.55;52.74;101542.44;4487980;31;34792;-79
2022/01/24 01:59:41;;;;;;;28.00;12.53;;;;;;;-2.93;53.61;101541.75;4475463;31;31715;-79
2022/01/24 02:02:09;;;;;;;22.50;10.63;;;;;;;-2.97;53.88;101543.72;4476072;31;33869;-79
2022/01/24 02:04:38;;;;;;;21.90;10.20;;;;;;;-2.87;53.29;101545.00;4487738;31;35406;-79
2022/01/24 02:07:11;;;;;;;19.57;10.50;;;;;;;-2.76;52.95;101545.31;4474953;31;34837;-79
2022/01/24 02:09:41;;;;;;;24.33;11.70;;;;;;;-2.71;52.79;101537.03;4474481;31;32948;-79
2022/01/24 02:12:10;;;;;;;24.03;10.63;;;;;;;-2.72;52.76;101548.72;4487648;31;33850;-79
2022/01/24 02:14:44;;;;;;;18.83;10.07;;;;;;;-2.76;52.90;101553.38;4474373;31;32877;-79
2022/01/24 02:17:18;;;;;;;23.47;12.30;;;;;;;-2.81;53.02;101565.31;4475260;31;32879;-79
2022/01/24 02:25:00;;;;;;;19.57;9.93;;;;;;;-2.86;53.09;101576.28;4487597;31;34427;-80
2022/01/24 02:27:41;;;;;;;18.53;10.20;;;;;;;-2.77;52.89;101572.28;4475689;31;34735;-80
2022/01/24 02:32:40;;;;;;;25.20;12.73;;;;;;;-2.92;52.55;101567.66;4501035;31;34476;-79
2022/01/24 02:35:09;;;;;;;25.73;11.33;;;;;;;-2.88;52.91;101570.13;4474191;31;33983;-79
2022/01/24 02:37:36;;;;;;;19.80;10.70;;;;;;;-2.95;52.92;101562.44;4473574;31;33888;-79
2022/01/24 02:40:12;;;;;;;19.47;9.70;;;;;;;-3.02;53.08;101568.13;4474246;31;33503;-79
2022/01/24 02:48:30;;;;;;;19.50;9.50;;;;;;;-3.10;52.89;101561.41;4489546;31;34303;-79
2022/01/24 02:53:41;;;;;;;21.53;8.73;;;;;;;-2.99;52.50;101565.28;4475454;31;32714;-79
2022/01/24 02:56:10;;;;;;;18.13;8.40;;;;;;;-3.29;53.32;101569.50;4487333;31;34331;-79
2022/01/24 02:58:37;;;;;;;25.23;11.30;;;;;;;-2.92;52.36;101570.34;4501266;31;34727;-79
2022/01/24 03:01:07;;;;;;;22.27;11.77;;;;;;;-3.11;52.54;101559.66;4474072;31;33135;-79
2022/01/24 03:03:40;;;;;;;20.23;11.63;;;;;;;-3.26;53.18;101574.72;4474339;31;32228;-79
2022/01/24 03:06:07;;;;;;;34.17;16.87;;;;;;;-3.29;53.39;101574.88;4474254;31;34046;-79
2022/01/24 03:08:38;;;;;;;29.13;14.70;;;;;;;-3.42;53.82;101563.88;4487269;31;33954;-79
2022/01/24 03:11:06;;;;;;;29.40;14.30;;;;;;;-3.39;53.53;101562.84;4487417;31;34071;-79
2022/01/24 03:13:33;;;;;;;23.27;10.40;;;;;;;-2.99;52.71;101567.97;4474028;31;34935;-79
2022/01/24 03:16:04;;;;;;;18.10;8.83;;;;;;;-3.10;52.55;101558.72;4474100;31;35490;-79
2022/01/24 03:18:32;;;;;;;21.03;9.33;;;;;;;-3.34;52.60;101577.78;4473865;31;34302;-79
2022/01/24 03:21:01;;;;;;;27.63;10.23;;;;;;;-3.29;52.47;101582.94;4486682;31;31718;-79
2022/01/24 03:23:29;;;;;;;22.53;11.97;;;;;;;-3.42;53.13;101581.78;4460993;31;32189;-79
2022/01/24 03:25:56;;;;;;;27.10;13.10;;;;;;;-3.42;52.99;101579.09;4473750;31;32756;-80
2022/01/24 03:28:24;;;;;;;23.23;12.20;;;;;;;-3.34;52.84;101587.66;4473452;31;32425;-80
2022/01/24 03:30:52;;;;;;;21.37;11.30;;;;;;;-3.42;53.16;101589.84;4473598;31;32008;-80
2022/01/24 03:33:23;;;;;;;19.73;9.20;;;;;;;-3.21;52.91;101596.81;4487007;31;33702;-80
2022/01/24 03:35:50;;;;;;;21.67;10.30;;;;;;;-3.21;52.59;101588.78;4486544;31;34426;-80
2022/01/24 03:38:18;;;;;;;20.13;9.27;;;;;;;-3.36;52.76;101600.28;4473786;31;33906;-79
2022/01/24 03:40:46;;;;;;;22.57;10.50;;;;;;;-3.47;52.96;101592.72;4486401;31;34158;-79
2022/01/24 03:43:13;;;;;;;16.93;8.70;;;;;;;-3.30;52.52;101602.66;4473236;31;34077;-79
2022/01/24 03:45:44;;;;;;;19.50;8.53;;;;;;;-3.37;52.78;101598.53;4500527;31;34021;-80
2022/01/24 03:51:14;;;;;;;23.10;10.93;;;;;;;-3.43;53.00;101602.38;4458633;31;33352;-79
2022/01/24 03:53:44;;;;;;;26.43;12.80;;;;;;;-3.68;53.29;101605.34;4475274;31;32718;-79
2022/01/24 03:56:12;;;;;;;24.10;12.10;;;;;;;-3.72;53.17;101598.38;4475236;31;32770;-80
2022/01/24 03:58:41;;;;;;;18.80;10.53;;;;;;;-3.61;53.14;101599.69;4488815;31;33920;-78
2022/01/24 04:01:09;;;;;;;19.10;10.17;;;;;;;-3.45;52.63;101596.22;4475237;31;31932;-79
2022/01/24 04:03:38;;;;;;;19.97;9.63;;;;;;;-3.51;52.71;101592.94;4488398;31;33432;-79
2022/01/24 04:06:06;;;;;;;21.50;10.00;;;;;;;-3.57;52.67;101590.56;4475295;31;32861;-79
2022/01/24 04:08:34;;;;;;;18.23;9.30;;;;;;;-3.54;52.65;101596.66;4488403;31;33815;-79
2022/01/24 04:11:09;;;;;;;18.37;9.23;;;;;;;-3.48;52.44;101595.50;4475356;31;31742;-79
2022/01/24 04:13:43;;;;;;;20.37;9.13;;;;;;;-3.63;52.87;101596.22;4476556;31;33780;-80
2022/01/24 04:16:25;;;;;;;20.27;8.10;;;;;;;-3.82;53.65;101601.56;4488876;31;35262;-79
2022/01/24 04:24:05;;;;;;;27.77;17.20;;;;;;;-3.71;54.06;101615.34;4475597;31;32206;-80
2022/01/24 04:26:34;;;;;;;25.63;14.03;;;;;;;-3.69;53.67;101613.47;4489238;31;34261;-79
2022/01/24 04:29:03;;;;;;;15.53;8.70;;;;;;;-3.93;54.03;101611.94;4475605;31;34648;-80
2022/01/24 04:31:32;;;;;;;19.90;9.10;;;;;;;-3.90;53.92;101615.34;4475195;31;32831;-79
2022/01/24 04:34:00;;;;;;;18.97;9.93;;;;;;;-3.67;53.40;101617.81;4488248;31;33737;-80
2022/01/24 04:36:28;;;;;;;19.90;9.60;;;;;;;-4.10;54.10;101628.78;4475303;31;34886;-80
2022/01/24 04:38:56;;;;;;;19.60;8.70;;;;;;;-3.90;54.00;101626.06;4475032;31;32273;-80
2022/01/24 04:41:28;;;;;;;22.50;9.00;;;;;;;-3.93;54.05;101623.53;4488276;31;34156;-80
2022/01/24 04:44:12;;;;;;;19.47;8.80;;;;;;;-3.85;54.03;101626.69;4475106;31;32314;-80
2022/01/24 04:47:02;;;;;;;19.10;8.67;;;;;;;-3.80;53.94;101632.72;4489809;31;34517;-80
2022/01/24 04:52:33;;;;;;;19.40;8.65;;;;;;;-3.58;53.59;101646.03;4477272;31;31741;-79
2022/01/24 04:55:01;;;;;;;18.33;8.43;;;;;;;-3.76;53.83;101642.38;4476686;31;32576;-79
2022/01/24 04:57:30;;;;;;;17.03;8.20;;;;;;;-3.70;53.56;101639.41;4475294;31;34078;-79
2022/01/24 04:59:59;;;;;;;19.30;8.73;;;;;;;-3.90;54.05;101639.47;4475195;31;34363;-78
2022/01/24 05:02:27;;;;;;;17.47;8.33;;;;;;;-3.73;53.67;101642.25;4474239;31;31692;-80
2022/01/24 05:04:56;;;;;;;17.00;8.00;;;;;;;-3.73;53.41;101644.91;4474364;31;32407;-79
2022/01/24 05:07:26;;;;;;;16.03;8.03;;;;;;;-3.60;53.07;101650.59;4487715;31;34347;-80
2022/01/24 05:26:01;;;;;;;16.27;7.50;;;;;;;-3.74;53.36;101663.78;4488537;31;33703;-79
2022/01/24 05:28:30;;;;;;;17.37;7.20;;;;;;;-3.80;53.44;101659.56;4487389;31;34340;-80
2022/01/24 05:30:58;;;;;;;17.37;7.50;;;;;;;-3.86;54.07;101667.87;4474963;31;34820;-78
2022/01/24 05:33:27;;;;;;;17.43;7.67;;;;;;;-3.88;53.82;101667.06;4487600;31;33950;-79
2022/01/24 05:35:55;;;;;;;19.63;7.90;;;;;;;-3.75;53.49;101668.25;4460953;31;33490;-79
2022/01/24 05:38:25;;;;;;;17.13;7.67;;;;;;;-3.91;53.81;101675.28;4474578;31;35139;-78
2022/01/24 05:40:53;;;;;;;17.83;7.03;;;;;;;-4.08;53.86;101669.78;4472004;31;32396;-78
2022/01/24 05:43:21;;;;;;;18.83;8.37;;;;;;;-3.58;66.58;101675.56;4474473;31;34205;-77
2022/01/24 05:45:49;;;;;;;17.03;7.30;;;;;;;-3.49;62.72;101674.25;4458355;32;32024;-79
2022/01/24 05:48:16;;;;;;;20.67;9.00;;;;;;;-3.56;58.25;101681.72;4471214;32;35361;-77
2022/01/24 05:50:46;;;;;;;18.07;7.90;;;;;;;-3.74;55.71;101680.75;4485007;32;32797;-78
2022/01/24 05:53:14;;;;;;;19.40;8.27;;;;;;;-3.69;54.70;101684.09;4484838;32;34016;-77
2022/01/24 05:55:41;;;;;;;19.73;9.97;;;;;;;-3.81;54.19;101683.75;4471964;32;33488;-79
2022/01/24 05:58:09;;;;;;;42.87;24.73;;;;;;;-3.77;53.96;101690.75;4484492;31;36290;-79
2022/01/24 06:00:37;;;;;;;30.90;16.47;;;;;;;-3.79;53.58;101697.97;4445685;32;32558;-79
2022/01/24 06:03:05;;;;;;;19.67;10.83;;;;;;;-3.69;53.14;101704.69;4459016;32;33533;-79
2022/01/24 06:05:35;;;;;;;17.27;9.43;;;;;;;-3.63;52.98;101698.16;4459698;32;34035;-80
2022/01/24 06:08:09;;;;;;;25.60;10.83;;;;;;;-3.77;53.02;101706.84;4458378;32;34345;-80
2022/01/24 06:10:39;;;;;;;32.77;15.93;;;;;;;-4.00;53.95;101702.50;4474727;31;33355;-79
2022/01/24 06:13:07;;;;;;;22.17;11.90;;;;;;;-3.69;53.33;101705.56;4486379;31;31674;-79
2022/01/24 06:15:35;;;;;;;25.63;11.33;;;;;;;-4.00;53.51;101698.00;4473440;31;32346;-79
2022/01/24 06:18:02;;;;;;;25.97;12.70;;;;;;;-3.81;53.28;101710.59;4472316;31;34223;-79
2022/01/24 06:20:30;;;;;;;25.47;11.10;;;;;;;-3.85;53.22;101706.28;4471769;31;33742;-80
2022/01/24 06:22:58;;;;;;;24.73;11.90;;;;;;;-3.88;53.32;101712.66;4471318;31;32877;-79
2022/01/24 06:25:29;;;;;;;21.20;10.00;;;;;;;-4.10;53.82;101714.56;4486088;31;34490;-80
2022/01/24 06:28:01;;;;;;;22.20;10.57;;;;;;;-3.80;53.52;101717.69;4473269;31;33389;-80
2022/01/24 06:30:29;;;;;;;25.83;12.63;;;;;;;-3.99;53.71;101717.66;4472949;31;34647;-79
2022/01/24 06:32:59;;;;;;;26.77;13.10;;;;;;;-3.91;53.69;101718.19;4473436;31;31842;-78
2022/01/24 06:35:27;;;;;;;22.40;10.43;;;;;;;-4.01;53.91;101728.44;4474003;31;32112;-79
2022/01/24 06:37:55;;;;;;;20.97;10.27;;;;;;;-4.10;54.47;101728.84;4487403;31;34363;-80
2022/01/24 06:40:23;;;;;;;19.53;8.80;;;;;;;-3.98;54.10;101730.12;4474357;31;33254;-80
2022/01/24 06:42:52;;;;;;;19.23;8.43;;;;;;;-4.02;53.99;101725.84;4474386;31;33349;-79
2022/01/24 06:45:23;;;;;;;18.33;9.43;;;;;;;-3.87;53.59;101732.31;4472176;31;34483;-79
2022/01/24 06:47:53;;;;;;;17.97;8.70;;;;;;;-3.83;53.48;101737.47;4486683;31;35208;-79
2022/01/24 06:50:25;;;;;;;21.27;10.00;;;;;;;-3.81;53.44;101740.97;4487329;31;34597;-80
2022/01/24 06:52:52;;;;;;;26.97;10.87;;;;;;;-3.84;53.71;101749.16;4474718;32;32044;-79
2022/01/24 06:55:23;;;;;;;26.13;11.50;;;;;;;-3.71;53.60;101749.47;4471625;32;34501;-79
2022/01/24 06:57:53;;;;;;;24.17;11.80;;;;;;;-3.70;53.69;101753.91;4471389;32;34397;-79
2022/01/24 07:00:25;;;;;;;23.50;10.97;;;;;;;-3.88;54.13;101755.56;4471553;32;33879;-79
2022/01/24 07:02:55;;;;;;;23.60;11.10;;;;;;;-3.81;53.95;101756.19;4459124;32;33228;-80
2022/01/24 07:05:28;;;;;;;18.03;9.57;;;;;;;-3.73;53.67;101760.28;4471235;32;33173;-79
2022/01/24 07:07:57;;;;;;;20.90;9.50;;;;;;;-4.00;54.49;101759.69;4484192;32;34663;-80
2022/01/24 07:10:27;;;;;;;20.97;9.37;;;;;;;-3.89;54.13;101772.59;4484102;32;34910;-80
2022/01/24 07:12:58;;;;;;;23.70;10.10;;;;;;;-3.79;54.41;101765.91;4484243;32;33132;-80
2022/01/24 07:15:34;;;;;;;20.47;10.03;;;;;;;-3.75;54.18;101769.34;4471015;32;32408;-80
2022/01/24 07:20:36;;;;;;;29.53;13.33;;;;;;;-3.82;54.71;101775.91;4471668;32;33620;-80
2022/01/24 07:23:09;;;;;;;27.30;14.20;;;;;;;-3.71;54.66;101770.94;4471288;32;33336;-80
2022/01/24 07:25:43;;;;;;;28.07;14.13;;;;;;;-3.59;54.69;101772.22;4447722;32;32212;-80
2022/01/24 07:28:12;;;;;;;31.73;15.13;;;;;;;-3.67;55.29;101780.59;4486891;32;34362;-79
2022/01/24 07:30:40;;;;;;;27.13;12.83;;;;;;;-3.80;55.77;101796.34;4472870;32;34507;-79
2022/01/24 07:33:10;;;;;;;25.90;12.00;;;;;;;-3.77;55.69;101793.53;4460015;32;33446;-79
2022/01/24 07:35:41;;;;;;;23.70;12.77;;;;;;;-3.51;55.10;101796.91;4460089;32;33993;-79
2022/01/24 07:38:09;;;;;;;26.23;14.53;;;;;;;-3.58;55.57;101796.31;4472602;32;35184;-79
2022/01/24 07:40:47;;;;;;;30.33;14.00;;;;;;;-3.79;56.15;101806.16;4472743;32;33425;-79
2022/01/24 07:43:17;;;;;;;27.37;13.40;;;;;;;-3.68;56.14;101806.56;4473391;32;34445;-79
2022/01/24 07:45:51;;;;;;;20.17;11.67;;;;;;;-3.62;56.39;101810.78;4459795;32;33673;-78
2022/01/24 07:48:22;;;;;;;23.07;11.20;;;;;;;-3.29;55.68;101815.63;4485582;32;34411;-80
2022/01/24 07:50:51;;;;;;;23.00;10.73;;;;;;;-3.58;56.76;101812.41;4488558;31;34803;-79
2022/01/24 07:53:20;;;;;;;24.20;12.03;;;;;;;-3.41;56.26;101817.03;4475410;31;34389;-79
2022/01/24 07:56:10;;;;;;;24.47;11.23;;;;;;;-3.32;56.25;101822.00;4477568;31;32239;-79
2022/01/24 07:58:44;;;;;;;23.80;11.20;;;;;;;-3.40;56.62;101826.84;4475459;31;34345;-80
2022/01/24 08:01:18;;;;;;;19.47;10.43;;;;;;;-3.41;56.62;101819.72;4462692;31;32210;-80
2022/01/24 08:03:51;;;;;;;18.77;9.93;;;;;;;-3.33;56.52;101817.56;4488800;31;33055;-79
2022/01/24 08:06:22;;;;;;;20.27;9.53;;;;;;;-3.03;55.87;101826.91;4475017;31;32445;-79
2022/01/24 08:08:53;;;;;;;20.73;9.73;;;;;;;-2.80;55.59;101833.91;4475222;31;33770;-80
2022/01/24 08:11:23;;;;;;;29.60;13.10;;;;;;;-2.57;55.10;101822.06;4476312;31;32430;-79
2022/01/24 08:13:54;;;;;;;36.57;15.13;;;;;;;-2.70;55.67;101832.53;4475870;31;33191;-81
2022/01/24 08:16:22;;;;;;;30.17;14.20;;;;;;;-2.69;55.77;101833.41;4476307;31;32160;-80
2022/01/24 08:18:52;;;;;;;29.60;13.37;;;;;;;-2.88;56.58;101835.22;4463350;31;33026;-79
2022/01/24 08:21:23;;;;;;;27.77;13.10;;;;;;;-2.63;56.10;101833.13;4472983;31;32040;-79
2022/01/24 08:23:51;;;;;;;36.53;14.47;;;;;;;-2.29;55.33;101837.75;4475756;31;31732;-79
2022/01/24 08:26:20;;;;;;;32.10;16.03;;;;;;;-2.32;55.45;101840.56;4476810;31;33709;-80
2022/01/24 08:28:48;;;;;;;25.47;13.57;;;;;;;-2.41;56.06;101841.91;4488406;31;35207;-80
2022/01/24 08:31:20;;;;;;;30.93;13.60;;;;;;;-2.45;56.32;101845.66;4475175;31;33914;-79
2022/01/24 08:33:50;;;;;;;35.87;16.00;;;;;;;-2.20;55.85;101847.19;4474977;31;33146;-83
2022/01/24 08:36:22;;;;;;;48.70;17.77;;;;;;;-2.32;56.50;101844.16;4475550;31;33758;-79
2022/01/24 08:39:06;;;;;;;72.20;25.43;;;;;;;-1.85;68.55;101848.13;4488489;31;34415;-79
2022/01/24 08:46:58;;;;;;;36.13;15.00;;;;;;;-1.48;59.49;101847.13;4488849;31;33653;-79
2022/01/24 08:49:26;;;;;;;30.37;14.13;;;;;;;-1.49;58.38;101846.25;4475085;31;35114;-78
2022/01/24 08:51:58;;;;;;;32.53;13.30;;;;;;;-1.57;58.03;101845.78;4487900;31;34025;-78
2022/01/24 08:54:33;;;;;;;27.60;12.67;;;;;;;-1.34;57.22;101852.66;4489058;31;33252;-79
2022/01/24 08:57:04;;;;;;;29.47;14.53;;;;;;;-1.47;57.06;101848.88;4487929;31;33948;-79
2022/01/24 08:59:32;;;;;;;32.30;14.63;;;;;;;-1.29;56.62;101844.31;4487783;31;35176;-79
2022/01/24 09:02:01;;;;;;;29.83;14.03;;;;;;;-1.41;56.69;101853.94;4475192;31;34661;-79
2022/01/24 09:04:32;;;;;;;25.90;13.03;;;;;;;-1.43;56.84;101847.75;4475781;31;33327;-79
2022/01/24 09:07:03;;;;;;;28.30;12.97;;;;;;;-1.24;56.43;101845.81;4474911;31;33886;-79
2022/01/24 09:09:34;;;;;;;23.70;11.77;;;;;;;-1.17;56.11;101851.75;4488277;31;35217;-79
2022/01/24 09:12:04;;;;;;;20.80;11.17;;;;;;;-1.02;55.85;101850.94;4487624;31;33866;-79
2022/01/24 09:14:39;;;;;;;23.90;11.83;;;;;;;-1.04;55.85;101851.03;4474696;31;34210;-79
2022/01/24 09:17:07;;;;;;;21.20;11.77;;;;;;;-0.93;55.33;101855.84;4475152;31;34496;-79
2022/01/24 09:19:42;;;;;;;17.37;9.13;;;;;;;-1.12;55.55;101849.69;4475297;31;34353;-80
2022/01/24 09:22:33;;;;;;;13.90;7.50;;;;;;;-1.17;54.08;101858.03;4465192;31;32651;-79
2022/01/24 09:25:03;;;;;;;15.73;6.07;;;;;;;-1.03;53.52;101863.56;4473096;31;32167;-79
2022/01/24 09:27:31;;;;;;;11.53;5.73;;;;;;;-1.04;52.01;101848.34;4474585;31;33109;-79
2022/01/24 09:30:04;;;;;;;12.80;6.60;;;;;;;-1.20;50.29;101851.91;4462342;31;33884;-78
2022/01/24 09:32:32;;;;;;;11.80;5.63;;;;;;;-1.31;50.44;101857.03;4474812;31;34355;-79
2022/01/24 09:35:10;;;;;;;12.97;6.27;;;;;;;-0.95;50.19;101854.19;4474357;31;34136;-79
2022/01/24 09:37:39;;;;;;;11.27;5.73;;;;;;;-0.65;50.60;101857.94;4459137;32;34562;-81
2022/01/24 09:40:13;;;;;;;16.47;7.10;;;;;;;-0.65;49.52;101860.63;4459085;32;34434;-79
2022/01/24 09:42:43;;;;;;;11.47;5.73;;;;;;;-0.76;48.49;101852.25;4459161;32;34275;-80
2022/01/24 09:45:13;;;;;;;16.27;7.60;;;;;;;-0.79;48.88;101849.72;4471898;32;34030;-79
2022/01/24 09:47:41;;;;;;;14.03;7.17;;;;;;;-0.49;48.70;101850.69;4471392;32;33791;-79
2022/01/24 09:50:11;;;;;;;12.43;6.27;;;;;;;-0.36;52.82;101840.97;4458717;32;34248;-79
2022/01/24 09:52:40;;;;;;;16.93;8.03;;;;;;;-0.65;50.48;101843.56;4471537;32;32566;-79
2022/01/24 09:55:09;;;;;;;25.10;11.20;;;;;;;-0.17;50.77;101839.94;4485836;32;33962;-79
2022/01/24 09:57:37;;;;;;;40.30;16.43;;;;;;;-0.05;51.09;101833.84;4446074;32;33210;-80
2022/01/24 10:00:07;;;;;;;19.27;9.50;;;;;;;0.19;49.33;101831.50;4458751;32;32844;-79
2022/01/24 10:02:39;;;;;;;22.07;12.57;;;;;;;0.38;48.19;101832.16;4472170;32;35270;-80
2022/01/24 10:05:17;;;;;;;13.50;6.70;;;;;;;0.51;47.28;101837.72;4472060;32;34091;-80
2022/01/24 10:07:51;;;;;;;;;;;;;;;0.38;44.96;101828.59;4459135;32;33248;-80
2022/01/24 10:10:27;;;;;;;30.53;18.50;;;;;;;0.45;45.91;101832.69;4446169;32;33837;-80
2022/01/24 10:19:21;;;;;;;15.30;8.00;;;;;;;0.26;44.88;101819.41;4484516;32;32378;-80
2022/01/24 10:22:02;;;;;;;13.65;6.30;;;;;;;0.68;44.26;101817.75;4460922;32;33157;-80
2022/01/24 10:24:40;;;;;;;12.63;6.45;;;;;;;0.94;43.67;101817.91;4458826;32;34146;-79
2022/01/24 10:27:25;;;;;;;10.80;5.07;;;;;;;0.93;44.14;101828.81;4458965;32;33860;-80
2022/01/24 10:29:55;;;;;;;12.60;5.50;;;;;;;0.96;43.56;101829.50;4459042;32;34414;-80
2022/01/24 10:32:31;;;;;;;10.10;4.90;;;;;;;1.25;43.58;101816.84;4458649;32;33024;-80
2022/01/24 10:35:19;;;;;;;;;;;;;;;1.25;44.34;101813.28;4459782;32;33689;-79
2022/01/24 10:37:53;;;;;;;10.32;4.37;;;;;;;1.34;43.28;101820.78;4448085;32;31730;-80
2022/01/24 10:40:46;;;;;;;11.70;5.93;;;;;;;1.50;43.43;101816.13;4472534;32;34596;-79
2022/01/24 10:43:22;;;;;;;14.77;7.20;;;;;;;1.69;43.42;101817.66;4459781;32;34467;-80
2022/01/24 10:45:51;;;;;;;11.80;5.45;;;;;;;1.71;43.31;101821.13;4446244;32;32410;-80
2022/01/24 10:48:22;;;;;;;37.03;22.43;;;;;;;1.89;43.51;101817.22;4458797;32;32954;-79
2022/01/24 10:51:06;;;;;;;26.07;17.03;;;;;;;1.78;41.70;101814.34;4458945;32;34396;-80
2022/01/24 10:53:39;;;;;;;;;;;;;;;1.89;42.21;101809.09;4459204;32;32954;-80
2022/01/24 10:56:43;;;;;;;15.93;8.70;;;;;;;1.92;42.06;101807.06;4471660;32;35295;-80
2022/01/24 10:59:10;;;;;;;16.93;9.10;;;;;;;2.09;40.45;101805.03;4470415;32;33464;-80
2022/01/24 11:01:45;;;;;;;10.07;5.47;;;;;;;2.09;41.43;101796.91;4458463;32;33333;-80
2022/01/24 11:04:17;;;;;;;15.63;5.30;;;;;;;2.24;42.04;101799.47;4458074;32;32917;-81
2022/01/24 11:06:48;;;;;;;10.73;4.90;;;;;;;2.52;40.76;101806.59;4471207;32;32372;-81
2022/01/24 11:09:25;;;;;;;12.37;6.50;;;;;;;2.53;41.71;101804.75;4458444;32;33000;-81
2022/01/24 11:11:58;;;;;;;11.30;5.20;;;;;;;2.56;40.99;101804.53;4471372;32;33654;-81
2022/01/24 11:14:27;;;;;;;14.50;5.62;;;;;;;2.65;40.39;101787.59;4458151;32;33417;-81
2022/01/24 11:16:58;;;;;;;10.95;5.53;;;;;;;2.85;40.15;101795.22;4458203;32;32562;-81
2022/01/24 11:19:45;;;;;;;11.38;4.87;;;;;;;2.95;40.86;101792.72;4471437;32;33039;-81
2022/01/24 11:22:22;;;;;;;10.70;4.95;;;;;;;3.02;40.91;101801.31;4470990;32;32218;-80
2022/01/24 11:24:56;;;;;;;9.85;4.72;;;;;;;3.23;40.22;101800.66;4471948;32;34196;-81
2022/01/24 11:27:36;;;;;;;10.55;4.62;;;;;;;3.34;39.04;101796.25;4470883;32;32442;-81
2022/01/24 11:30:27;;;;;;;12.60;5.80;;;;;;;3.21;38.32;101802.59;4470975;32;33682;-80
2022/01/24 11:33:09;;;;;;;12.10;5.50;;;;;;;3.39;37.84;101794.94;4471247;32;33414;-80
2022/01/24 11:35:54;;;;;;;12.63;5.32;;;;;;;3.42;38.99;101802.87;4471145;32;34340;-80
2022/01/24 11:38:28;;;;;;;10.32;4.78;;;;;;;3.54;38.76;101784.81;4471345;32;34015;-80
2022/01/24 11:41:01;;;;;;;11.05;5.32;;;;;;;3.56;39.72;101791.88;4457857;32;31575;-80
2022/01/24 11:43:40;;;;;;;11.52;5.07;;;;;;;3.28;38.32;101782.16;4470736;32;34458;-80
2022/01/24 11:46:30;;;;;;;11.73;5.60;;;;;;;3.32;37.86;101780.09;4470662;32;33961;-80
2022/01/24 11:49:38;;;;;;;17.52;6.18;;;;;;;3.35;38.01;101777.16;4441610;32;33739;-80
2022/01/24 11:52:13;;;;;;;12.55;5.47;;;;;;;3.26;38.26;101778.69;4435263;32;33220;-80
2022/01/24 11:57:34;;;;;;;12.00;5.20;;;;;;;3.46;37.90;101770.94;4469857;32;34253;-81
2022/01/24 12:00:05;;;;;;;9.80;5.10;;;;;;;3.58;37.66;101772.75;4457626;32;34166;-83
2022/01/24 12:02:50;;;;;;;10.75;4.97;;;;;;;3.50;36.54;101769.75;4483528;32;33600;-80
2022/01/24 12:05:21;;;;;;;12.35;5.93;;;;;;;3.52;37.50;101763.22;4457572;32;33270;-80
2022/01/24 12:07:59;;;;;;;9.98;5.37;;;;;;;3.48;37.91;101761.72;4470355;32;32636;-80
2022/01/24 12:10:43;;;;;;;17.95;8.88;;;;;;;3.53;38.90;101764.09;4453386;31;32599;-79
2022/01/24 12:13:18;;;;;;;21.12;9.80;;;;;;;3.56;39.43;101751.16;4488426;31;33361;-79
2022/01/24 12:15:53;;;;;;;10.77;5.90;;;;;;;3.57;39.61;101758.31;4502516;31;34492;-80
2022/01/24 12:18:29;;;;;;;22.23;14.20;;;;;;;3.63;40.01;101757.00;4475453;31;35066;-79
2022/01/24 12:21:23;;;;;;;17.73;7.68;;;;;;;3.46;39.21;101747.38;4502516;31;33963;-80
2022/01/24 12:23:53;;;;;;;13.57;6.12;;;;;;;3.41;39.96;101754.12;4488657;31;33889;-79
2022/01/24 12:26:43;;;;;;;10.45;5.80;;;;;;;3.38;39.35;101748.91;4476777;31;32336;-79
2022/01/24 12:29:13;;;;;;;19.87;8.63;;;;;;;3.43;39.55;101752.16;4475184;31;34645;-78
2022/01/24 12:31:45;;;;;;;14.23;7.00;;;;;;;3.16;41.06;101752.34;4502302;31;34146;-79
2022/01/24 12:34:24;;;;;;;16.02;8.63;;;;;;;3.10;40.44;101758.22;4502604;31;33344;-79
2022/01/24 12:37:00;;;;;;;18.25;8.02;;;;;;;2.99;39.40;101753.56;4475045;31;32350;-79
2022/01/24 12:39:48;;;;;;;19.80;8.73;;;;;;;2.94;39.82;101739.47;4502579;31;35285;-79
2022/01/24 12:42:29;;;;;;;14.95;6.82;;;;;;;2.99;39.69;101742.72;4488098;31;33889;-78
2022/01/24 12:47:43;;;;;;;13.98;6.15;;;;;;;2.67;39.55;101752.25;4476538;31;32141;-79
2022/01/24 12:50:12;;;;;;;16.67;7.37;;;;;;;2.80;39.24;101755.84;4475395;31;35195;-80
2022/01/24 12:52:42;;;;;;;13.95;7.12;;;;;;;3.10;39.39;101744.66;4475082;31;34263;-79
2022/01/24 12:55:10;;;;;;;13.55;6.75;;;;;;;2.97;40.17;101750.97;4474947;31;33620;-79
2022/01/24 12:57:43;;;;;;;15.48;6.87;;;;;;;2.92;40.58;101752.25;4475393;31;33820;-79
2022/01/24 13:00:16;;;;;;;13.20;7.12;;;;;;;2.86;40.23;101747.28;4487772;31;35088;-78
2022/01/24 13:02:46;;;;;;;11.70;6.57;;;;;;;2.74;39.74;101745.44;4474907;31;33070;-79
2022/01/24 13:05:17;;;;;;;16.67;6.43;;;;;;;2.76;39.46;101747.06;4475233;31;33233;-79
2022/01/24 13:07:50;;;;;;;14.95;6.07;;;;;;;2.28;40.05;101751.38;4475079;31;33776;-79
2022/01/24 13:10:22;;;;;;;13.68;6.53;;;;;;;2.76;39.49;101738.94;4487399;31;34495;-79
2022/01/24 13:13:10;;;;;;;11.85;6.10;;;;;;;3.01;39.28;101742.59;4461722;31;32270;-79
2022/01/24 13:21:17;;;;;;;12.15;6.20;;;;;;;2.95;39.49;101733.94;4476476;31;33080;-80
2022/01/24 13:24:07;;;;;;;10.98;6.22;;;;;;;3.00;39.16;101732.72;4473863;31;32523;-80
2022/01/24 13:26:35;;;;;;;19.25;7.85;;;;;;;3.10;38.84;101731.09;4487963;31;33222;-79
2022/01/24 13:29:04;;;;;;;15.23;7.40;;;;;;;2.93;39.76;101729.59;4474807;31;33542;-80
2022/01/24 13:31:31;;;;;;;15.63;6.78;;;;;;;2.95;39.01;101741.19;4487706;31;34075;-79
2022/01/24 13:33:59;;;;;;;17.20;7.75;;;;;;;3.18;39.45;101740.41;4474901;31;34706;-79
2022/01/24 13:36:30;;;;;;;14.35;7.55;;;;;;;2.85;39.11;101740.12;4474846;31;33367;-80
2022/01/24 13:38:58;;;;;;;13.60;6.93;;;;;;;2.99;38.77;101740.00;4474714;31;33126;-79
2022/01/24 13:41:27;;;;;;;14.02;6.95;;;;;;;2.94;39.35;101748.47;4487688;31;34435;-79